createdAt,value
2018-09-16T00:00:49.748Z,99.99
2018-09-16T00:01:49.901Z,99.99
2018-09-16T00:02:50.049Z,99.99
2018-09-16T00:03:50.197Z,99.99
2018-09-16T00:04:50.349Z,99.99
2018-09-16T00:05:50.499Z,99.99
2018-09-16T00:06:50.651Z,99.99
2018-09-16T00:07:50.800Z,99.99
2018-09-16T00:08:50.949Z,99.99
2018-09-16T00:09:51.098Z,99.99
2018-09-16T00:10:51.244Z,99.99
2018-09-16T00:11:51.396Z,99.99
2018-09-16T00:12:51.544Z,99.94
2018-09-16T00:13:51.693Z,99.99
2018-09-16T00:14:51.842Z,99.99
2018-09-16T00:15:51.994Z,99.99
2018-09-16T00:16:52.142Z,99.99
2018-09-16T00:17:52.296Z,99.99
2018-09-16T00:18:52.441Z,99.99
2018-09-16T00:19:52.590Z,99.99
2018-09-16T00:20:52.740Z,99.99
2018-09-16T00:21:52.888Z,99.99
2018-09-16T00:22:53.040Z,99.99
2018-09-16T00:23:53.186Z,99.99
2018-09-16T00:24:53.333Z,99.99
2018-09-16T00:25:53.481Z,99.99
2018-09-16T00:26:53.633Z,99.99
2018-09-16T00:27:53.781Z,99.99
2018-09-16T00:28:53.929Z,99.99
2018-09-16T00:29:54.082Z,99.99
2018-09-16T00:30:54.231Z,99.99
2018-09-16T00:31:54.378Z,99.99
2018-09-16T00:32:54.528Z,99.99
2018-09-16T00:33:54.675Z,99.99
2018-09-16T00:34:54.824Z,99.99
2018-09-16T00:35:54.974Z,99.99
2018-09-16T00:36:55.123Z,99.99
2018-09-16T00:37:55.271Z,99.99
2018-09-16T00:38:55.424Z,99.99
2018-09-16T00:39:55.568Z,99.99
2018-09-16T00:40:55.717Z,99.99
2018-09-16T00:41:55.866Z,99.99
2018-09-16T00:42:56.013Z,99.99
2018-09-16T00:43:56.164Z,99.99
2018-09-16T00:44:56.312Z,99.99
2018-09-16T00:45:56.468Z,99.99
2018-09-16T00:46:56.612Z,99.99
2018-09-16T00:47:56.764Z,99.99
2018-09-16T00:48:56.912Z,99.99
2018-09-16T00:49:57.060Z,99.99
2018-09-16T00:50:57.209Z,99.99
2018-09-16T00:51:57.358Z,99.99
2018-09-16T00:52:57.498Z,99.99
2018-09-16T00:53:57.645Z,99.99
2018-09-16T00:54:57.795Z,99.99
2018-09-16T00:55:57.948Z,99.99
2018-09-16T00:56:58.090Z,99.99
2018-09-16T00:57:58.237Z,99.99
2018-09-16T00:58:58.386Z,99.99
2018-09-16T00:59:58.536Z,99.99
2018-09-16T01:00:58.683Z,99.99
2018-09-16T01:01:58.837Z,99.99
2018-09-16T01:02:58.982Z,99.99
2018-09-16T01:03:59.137Z,99.99
2018-09-16T01:04:59.280Z,99.99
2018-09-16T01:05:59.429Z,99.99
2018-09-16T01:06:59.577Z,99.99
2018-09-16T01:07:59.722Z,99.99
2018-09-16T01:08:59.876Z,99.99
2018-09-16T01:10:00.022Z,99.99
2018-09-16T01:11:00.169Z,99.99
2018-09-16T01:12:00.318Z,99.99
2018-09-16T01:13:00.465Z,99.99
2018-09-16T01:14:00.615Z,99.99
2018-09-16T01:15:00.765Z,99.99
2018-09-16T01:16:00.910Z,99.99
2018-09-16T01:17:01.061Z,99.99
2018-09-16T01:18:01.207Z,99.99
2018-09-16T01:19:01.358Z,99.99
2018-09-16T01:20:01.511Z,99.99
2018-09-16T01:21:01.660Z,99.99
2018-09-16T01:22:01.805Z,99.99
2018-09-16T01:23:01.947Z,99.99
2018-09-16T01:24:02.100Z,99.99
2018-09-16T01:25:02.250Z,99.99
2018-09-16T01:26:02.397Z,99.99
2018-09-16T01:27:02.589Z,99.99
2018-09-16T01:28:02.694Z,99.99
2018-09-16T01:29:02.842Z,99.99
2018-09-16T01:30:02.991Z,99.99
2018-09-16T01:31:03.147Z,99.99
2018-09-16T01:32:03.287Z,99.99
2018-09-16T01:33:03.437Z,99.99
2018-09-16T01:34:03.586Z,99.99
2018-09-16T01:35:03.737Z,99.99
2018-09-16T01:36:03.885Z,99.99
2018-09-16T01:37:04.033Z,99.99
2018-09-16T01:38:04.184Z,99.99
2018-09-16T01:39:04.332Z,99.99
2018-09-16T01:40:04.481Z,99.99
2018-09-16T01:41:04.629Z,99.99
2018-09-16T01:42:04.780Z,99.99
2018-09-16T01:43:04.928Z,99.99
2018-09-16T01:44:05.073Z,99.99
2018-09-16T01:45:05.225Z,99.99
2018-09-16T01:46:05.370Z,99.99
2018-09-16T01:47:05.519Z,99.99
2018-09-16T01:48:05.667Z,99.99
2018-09-16T01:49:05.815Z,99.99
2018-09-16T01:50:05.965Z,99.99
2018-09-16T01:51:06.111Z,99.99
2018-09-16T01:52:06.260Z,99.99
2018-09-16T01:53:06.407Z,99.99
2018-09-16T01:54:06.558Z,99.99
2018-09-16T01:55:06.707Z,99.99
2018-09-16T01:56:06.855Z,99.99
2018-09-16T01:57:07.004Z,99.99
2018-09-16T01:58:07.152Z,99.99
2018-09-16T01:59:07.301Z,99.99
2018-09-16T02:00:07.450Z,99.99
2018-09-16T02:01:07.597Z,99.99
2018-09-16T02:02:07.755Z,99.99
2018-09-16T02:03:07.896Z,99.99
2018-09-16T02:04:08.044Z,99.99
2018-09-16T02:05:08.192Z,99.99
2018-09-16T02:06:08.339Z,99.99
2018-09-16T02:07:08.486Z,99.99
2018-09-16T02:08:08.636Z,99.99
2018-09-16T02:09:08.786Z,99.99
2018-09-16T02:10:08.932Z,99.99
2018-09-16T02:11:09.082Z,99.99
2018-09-16T02:12:09.226Z,99.99
2018-09-16T02:13:09.379Z,99.99
2018-09-16T02:14:09.531Z,99.99
2018-09-16T02:15:09.677Z,99.99
2018-09-16T02:16:09.823Z,99.99
2018-09-16T02:17:09.973Z,99.99
2018-09-16T02:18:10.120Z,99.99
2018-09-16T02:19:10.267Z,99.99
2018-09-16T02:20:10.412Z,99.99
2018-09-16T02:21:10.556Z,99.99
2018-09-16T02:22:10.712Z,99.99
2018-09-16T02:23:10.858Z,99.99
2018-09-16T02:24:11.007Z,99.99
2018-09-16T02:25:11.157Z,99.99
2018-09-16T02:26:11.356Z,99.99
2018-09-16T02:27:11.455Z,99.99
2018-09-16T02:28:11.604Z,99.99
2018-09-16T02:29:11.750Z,99.99
2018-09-16T02:30:11.900Z,99.99
2018-09-16T02:31:12.046Z,99.99
2018-09-16T02:32:12.195Z,99.99
2018-09-16T02:33:12.344Z,99.99
2018-09-16T02:34:12.495Z,99.99
2018-09-16T02:35:12.640Z,99.99
2018-09-16T02:36:12.795Z,99.99
2018-09-16T02:37:12.937Z,99.99
2018-09-16T02:38:13.087Z,99.99
2018-09-16T02:39:13.234Z,99.99
2018-09-16T02:40:13.387Z,99.99
2018-09-16T02:41:13.545Z,99.99
2018-09-16T02:42:13.680Z,99.99
2018-09-16T02:43:13.894Z,99.99
2018-09-16T02:44:13.981Z,99.99
2018-09-16T02:45:14.126Z,99.99
2018-09-16T02:46:14.276Z,99.99
2018-09-16T02:47:14.432Z,99.99
2018-09-16T02:48:14.575Z,99.99
2018-09-16T02:49:14.725Z,99.99
2018-09-16T02:50:14.871Z,99.99
2018-09-16T02:51:15.018Z,99.99
2018-09-16T02:52:15.165Z,99.99
2018-09-16T02:53:15.316Z,99.99
2018-09-16T02:54:15.464Z,99.99
2018-09-16T02:55:15.611Z,99.99
2018-09-16T02:56:15.757Z,99.99
2018-09-16T02:57:15.908Z,99.99
2018-09-16T02:58:16.054Z,99.99
2018-09-16T02:59:16.202Z,99.99
2018-09-16T03:00:16.350Z,99.99
2018-09-16T03:01:16.496Z,99.99
2018-09-16T03:02:16.644Z,99.99
2018-09-16T03:03:16.796Z,99.99
2018-09-16T03:04:16.988Z,99.99
2018-09-16T03:05:17.089Z,99.99
2018-09-16T03:06:17.235Z,99.99
2018-09-16T03:07:17.382Z,99.99
2018-09-16T03:08:17.531Z,99.99
2018-09-16T03:09:17.690Z,99.99
2018-09-16T03:10:17.827Z,99.99
2018-09-16T03:11:17.976Z,99.99
2018-09-16T03:12:18.123Z,99.99
2018-09-16T03:13:18.268Z,99.99
2018-09-16T03:14:18.418Z,99.99
2018-09-16T03:15:18.564Z,99.99
2018-09-16T03:16:18.719Z,99.99
2018-09-16T03:17:18.864Z,99.99
2018-09-16T03:18:19.014Z,99.99
2018-09-16T03:19:19.159Z,99.99
2018-09-16T03:20:19.307Z,99.99
2018-09-16T03:21:19.455Z,99.99
2018-09-16T03:22:19.605Z,99.99
2018-09-16T03:23:19.749Z,99.99
2018-09-16T03:24:19.898Z,99.99
2018-09-16T03:25:20.045Z,99.99
2018-09-16T03:26:20.195Z,99.99
2018-09-16T03:27:20.340Z,99.99
2018-09-16T03:28:20.488Z,99.99
2018-09-16T03:29:20.638Z,99.99
2018-09-16T03:30:20.782Z,99.99
2018-09-16T03:31:20.934Z,99.99
2018-09-16T03:32:21.079Z,99.99
2018-09-16T03:33:21.226Z,99.99
2018-09-16T03:34:21.373Z,99.99
2018-09-16T03:35:21.526Z,99.99
2018-09-16T03:36:21.673Z,99.99
2018-09-16T03:37:21.820Z,99.99
2018-09-16T03:38:21.966Z,99.99
2018-09-16T03:39:22.117Z,99.99
2018-09-16T03:40:22.263Z,99.99
2018-09-16T03:41:22.411Z,99.99
2018-09-16T03:42:22.556Z,99.99
2018-09-16T03:43:22.705Z,99.99
2018-09-16T03:44:22.856Z,99.99
2018-09-16T03:45:23.002Z,99.99
2018-09-16T03:46:23.146Z,99.99
2018-09-16T03:47:23.298Z,99.99
2018-09-16T03:48:23.457Z,99.99
2018-09-16T03:49:23.598Z,99.99
2018-09-16T03:50:23.739Z,99.99
2018-09-16T03:51:23.909Z,99.99
2018-09-16T03:52:24.034Z,99.99
2018-09-16T03:53:24.180Z,99.99
2018-09-16T03:54:24.328Z,99.99
2018-09-16T03:55:24.475Z,99.99
2018-09-16T03:56:24.622Z,99.99
2018-09-16T03:57:24.771Z,99.99
2018-09-16T03:58:24.922Z,99.99
2018-09-16T03:59:25.068Z,99.99
2018-09-16T04:00:25.225Z,99.99
2018-09-16T04:01:25.363Z,99.99
2018-09-16T04:02:25.511Z,99.99
2018-09-16T04:03:25.658Z,99.99
2018-09-16T04:04:25.804Z,99.99
2018-09-16T04:05:25.953Z,99.99
2018-09-16T04:06:26.097Z,99.99
2018-09-16T04:07:26.250Z,99.99
2018-09-16T04:08:26.396Z,99.99
2018-09-16T04:09:26.543Z,99.99
2018-09-16T04:10:26.691Z,99.99
2018-09-16T04:11:26.836Z,99.99
2018-09-16T04:12:26.987Z,99.99
2018-09-16T04:13:27.132Z,99.99
2018-09-16T04:14:27.280Z,99.99
2018-09-16T04:15:27.429Z,99.99
2018-09-16T04:16:27.577Z,99.99
2018-09-16T04:17:27.728Z,99.99
2018-09-16T04:18:27.878Z,99.99
2018-09-16T04:19:28.019Z,99.99
2018-09-16T04:20:28.168Z,99.99
2018-09-16T04:21:28.316Z,99.99
2018-09-16T04:22:28.462Z,99.99
2018-09-16T04:23:28.609Z,99.99
2018-09-16T04:24:28.758Z,99.99
2018-09-16T04:25:28.907Z,99.99
2018-09-16T04:26:29.056Z,99.99
2018-09-16T04:27:29.201Z,99.99
2018-09-16T04:28:29.349Z,99.99
2018-09-16T04:29:29.495Z,99.99
2018-09-16T04:30:29.657Z,99.99
2018-09-16T04:31:29.794Z,99.99
2018-09-16T04:32:29.943Z,99.99
2018-09-16T04:33:30.183Z,99.99
2018-09-16T04:34:30.237Z,99.99
2018-09-16T04:35:30.382Z,99.99
2018-09-16T04:36:30.530Z,99.99
2018-09-16T04:37:30.677Z,99.99
2018-09-16T04:38:30.822Z,99.99
2018-09-16T04:39:30.970Z,99.99
2018-09-16T04:40:31.117Z,99.99
2018-09-16T04:41:31.264Z,99.99
2018-09-16T04:42:31.409Z,99.99
2018-09-16T04:43:31.556Z,99.99
2018-09-16T04:44:31.704Z,99.99
2018-09-16T04:45:31.851Z,99.99
2018-09-16T04:46:31.996Z,99.99
2018-09-16T04:47:32.141Z,99.99
2018-09-16T04:48:32.289Z,99.99
2018-09-16T04:49:32.435Z,99.99
2018-09-16T04:50:32.584Z,99.99
2018-09-16T04:51:32.728Z,99.99
2018-09-16T04:52:32.876Z,99.99
2018-09-16T04:53:33.029Z,99.99
2018-09-16T04:54:33.175Z,99.99
2018-09-16T04:55:33.324Z,99.99
2018-09-16T04:56:33.467Z,99.99
2018-09-16T04:57:33.618Z,99.99
2018-09-16T04:58:33.765Z,99.99
2018-09-16T04:59:33.911Z,99.99
2018-09-16T05:00:34.059Z,99.99
2018-09-16T05:01:34.206Z,99.99
2018-09-16T05:02:34.355Z,99.99
2018-09-16T05:03:34.499Z,99.99
2018-09-16T05:04:34.645Z,99.99
2018-09-16T05:05:34.799Z,99.99
2018-09-16T05:06:34.941Z,99.99
2018-09-16T05:07:35.087Z,99.99
2018-09-16T05:08:35.238Z,99.99
2018-09-16T05:09:35.389Z,99.99
2018-09-16T05:10:35.662Z,99.99
2018-09-16T05:11:35.673Z,99.99
2018-09-16T05:12:35.828Z,99.99
2018-09-16T05:13:35.977Z,99.99
2018-09-16T05:14:36.124Z,99.99
2018-09-16T05:15:36.271Z,99.99
2018-09-16T05:16:36.420Z,99.99
2018-09-16T05:17:36.568Z,99.99
2018-09-16T05:18:36.718Z,99.99
2018-09-16T05:19:36.863Z,99.99
2018-09-16T05:20:37.009Z,99.99
2018-09-16T05:21:37.162Z,99.99
2018-09-16T05:22:37.384Z,99.99
2018-09-16T05:23:37.450Z,99.99
2018-09-16T05:24:37.602Z,99.99
2018-09-16T05:25:37.750Z,99.99
2018-09-16T05:26:37.898Z,99.99
2018-09-16T05:27:38.046Z,99.99
2018-09-16T05:28:38.195Z,99.99
2018-09-16T05:29:38.342Z,99.99
2018-09-16T05:30:38.494Z,99.99
2018-09-16T05:31:38.640Z,99.99
2018-09-16T05:32:38.786Z,99.99
2018-09-16T05:33:38.937Z,99.99
2018-09-16T05:34:39.092Z,99.99
2018-09-16T05:35:39.231Z,99.99
2018-09-16T05:36:39.381Z,99.99
2018-09-16T05:37:39.526Z,99.99
2018-09-16T05:38:39.675Z,99.99
2018-09-16T05:39:39.824Z,99.99
2018-09-16T05:40:39.971Z,99.99
2018-09-16T05:41:40.124Z,99.99
2018-09-16T05:42:40.272Z,99.99
2018-09-16T05:43:40.421Z,99.99
2018-09-16T05:44:40.569Z,99.99
2018-09-16T05:45:40.716Z,99.99
2018-09-16T05:46:40.865Z,99.99
2018-09-16T05:47:41.012Z,99.99
2018-09-16T05:48:41.161Z,99.99
2018-09-16T05:49:41.310Z,99.99
2018-09-16T05:50:41.462Z,99.99
2018-09-16T05:51:41.612Z,99.99
2018-09-16T05:52:41.828Z,99.99
2018-09-16T05:53:41.910Z,99.99
2018-09-16T05:54:42.053Z,99.99
2018-09-16T05:55:42.199Z,99.99
2018-09-16T05:56:42.348Z,99.99
2018-09-16T05:57:42.498Z,99.99
2018-09-16T05:58:42.645Z,99.99
2018-09-16T05:59:42.797Z,99.99
2018-09-16T06:00:42.947Z,99.99
2018-09-16T06:01:43.091Z,99.99
2018-09-16T06:02:43.243Z,99.99
2018-09-16T06:03:43.390Z,99.99
2018-09-16T06:04:43.563Z,99.99
2018-09-16T06:05:43.694Z,99.99
2018-09-16T06:06:43.842Z,99.99
2018-09-16T06:07:43.989Z,99.99
2018-09-16T06:08:44.139Z,99.99
2018-09-16T06:09:44.285Z,99.99
2018-09-16T06:10:44.453Z,99.99
2018-09-16T06:11:44.574Z,99.99
2018-09-16T06:12:44.721Z,99.99
2018-09-16T06:13:44.868Z,99.99
2018-09-16T06:14:45.020Z,99.99
2018-09-16T06:15:45.169Z,99.99
2018-09-16T06:16:45.317Z,99.99
2018-09-16T06:17:45.464Z,99.99
2018-09-16T06:18:45.612Z,99.99
2018-09-16T06:19:45.761Z,99.99
2018-09-16T06:20:45.910Z,99.99
2018-09-16T06:21:46.059Z,99.99
2018-09-16T06:22:46.231Z,99.99
2018-09-16T06:23:46.358Z,99.99
2018-09-16T06:24:46.507Z,99.99
2018-09-16T06:25:46.656Z,99.99
2018-09-16T06:26:46.805Z,99.99
2018-09-16T06:27:46.963Z,99.99
2018-09-16T06:28:47.112Z,99.99
2018-09-16T06:29:47.243Z,99.99
2018-09-16T06:30:47.391Z,99.99
2018-09-16T06:31:47.543Z,99.99
2018-09-16T06:32:47.690Z,99.99
2018-09-16T06:33:47.854Z,99.99
2018-09-16T06:34:47.990Z,99.99
2018-09-16T06:35:48.140Z,99.99
2018-09-16T06:36:48.286Z,99.99
2018-09-16T06:37:48.438Z,99.99
2018-09-16T06:38:48.589Z,99.99
2018-09-16T06:39:48.732Z,99.99
2018-09-16T06:40:48.884Z,99.99
2018-09-16T06:41:49.034Z,99.99
2018-09-16T06:42:49.184Z,99.99
2018-09-16T06:43:49.340Z,99.99
2018-09-16T06:44:49.480Z,99.99
2018-09-16T06:45:49.633Z,99.99
2018-09-16T06:46:49.781Z,99.99
2018-09-16T06:47:49.930Z,99.99
2018-09-16T06:48:50.084Z,99.99
2018-09-16T06:49:50.225Z,99.99
2018-09-16T06:50:50.420Z,99.99
2018-09-16T06:51:50.530Z,99.99
2018-09-16T06:52:50.694Z,99.99
2018-09-16T06:53:50.829Z,99.99
2018-09-16T06:54:50.995Z,99.99
2018-09-16T06:55:51.122Z,99.99
2018-09-16T06:56:51.269Z,99.99
2018-09-16T06:57:51.415Z,99.99
2018-09-16T06:58:51.567Z,99.99
2018-09-16T06:59:51.719Z,99.99
2018-09-16T07:00:51.887Z,99.99
2018-09-16T07:01:52.015Z,99.99
2018-09-16T07:02:52.164Z,99.99
2018-09-16T07:03:52.312Z,99.99
2018-09-16T07:04:52.461Z,99.99
2018-09-16T07:05:52.611Z,99.99
2018-09-16T07:06:52.765Z,99.99
2018-09-16T07:07:52.914Z,99.99
2018-09-16T07:08:53.062Z,99.99
2018-09-16T07:09:53.210Z,99.99
2018-09-16T07:10:53.358Z,99.99
2018-09-16T07:11:53.511Z,99.99
2018-09-16T07:12:53.660Z,99.99
2018-09-16T07:13:53.809Z,99.99
2018-09-16T07:14:53.961Z,99.99
2018-09-16T07:15:54.109Z,99.99
2018-09-16T07:16:54.260Z,99.99
2018-09-16T07:17:54.412Z,99.99
2018-09-16T07:18:54.565Z,99.99
2018-09-16T07:19:54.712Z,99.99
2018-09-16T07:20:54.862Z,99.13
2018-09-16T07:21:55.008Z,99.70
2018-09-16T07:22:55.156Z,99.89
2018-09-16T07:23:55.309Z,99.04
2018-09-16T07:24:55.456Z,99.13
2018-09-16T07:25:55.603Z,98.36
2018-09-16T07:26:55.824Z,97.99
2018-09-16T07:27:55.904Z,97.41
2018-09-16T07:28:56.053Z,98.80
2018-09-16T07:29:56.205Z,98.51
2018-09-16T07:30:56.352Z,97.94
2018-09-16T07:31:56.507Z,97.27
2018-09-16T07:32:56.654Z,97.17
2018-09-16T07:33:56.872Z,97.17
2018-09-16T07:34:56.955Z,97.08
2018-09-16T07:35:57.105Z,96.13
2018-09-16T07:36:57.258Z,96.51
2018-09-16T07:37:57.410Z,96.13
2018-09-16T07:38:57.556Z,96.84
2018-09-16T07:39:57.708Z,96.56
2018-09-16T07:40:57.856Z,96.03
2018-09-16T07:41:58.012Z,96.66
2018-09-16T07:42:58.158Z,95.98
2018-09-16T07:43:58.311Z,96.27
2018-09-16T07:44:58.462Z,95.61
2018-09-16T07:45:58.616Z,95.22
2018-09-16T07:46:58.769Z,94.84
2018-09-16T07:47:58.920Z,95.98
2018-09-16T07:48:59.070Z,95.41
2018-09-16T07:49:59.228Z,94.56
2018-09-16T07:50:59.369Z,95.61
2018-09-16T07:51:59.523Z,94.56
2018-09-16T07:52:59.832Z,94.51
2018-09-16T07:53:59.824Z,94.79
2018-09-16T07:54:59.976Z,94.51
2018-09-16T07:56:00.138Z,93.93
2018-09-16T07:57:00.279Z,93.46
2018-09-16T07:58:00.433Z,92.79
2018-09-16T07:59:00.582Z,91.97
2018-09-16T08:00:00.731Z,91.40
2018-09-16T08:01:00.884Z,91.69
2018-09-16T08:02:01.040Z,91.59
2018-09-16T08:03:01.187Z,91.78
2018-09-16T08:04:01.340Z,91.30
2018-09-16T08:05:01.495Z,91.30
2018-09-16T08:06:01.724Z,90.88
2018-09-16T08:07:01.797Z,91.06
2018-09-16T08:08:01.954Z,90.59
2018-09-16T08:09:02.106Z,90.59
2018-09-16T08:10:02.270Z,89.63
2018-09-16T08:11:02.420Z,89.53
2018-09-16T08:12:02.572Z,89.44
2018-09-16T08:13:02.722Z,89.53
2018-09-16T08:14:02.873Z,88.77
2018-09-16T08:15:03.039Z,89.15
2018-09-16T08:16:03.183Z,88.39
2018-09-16T08:17:03.354Z,88.91
2018-09-16T08:18:03.505Z,88.24
2018-09-16T08:19:03.658Z,88.15
2018-09-16T08:20:03.808Z,87.76
2018-09-16T08:21:04.092Z,87.38
2018-09-16T08:22:04.130Z,88.24
2018-09-16T08:23:04.282Z,87.57
2018-09-16T08:24:04.434Z,87.48
2018-09-16T08:25:04.588Z,86.71
2018-09-16T08:26:04.738Z,86.80
2018-09-16T08:27:04.892Z,86.80
2018-09-16T08:28:05.042Z,86.57
2018-09-16T08:29:05.191Z,87.23
2018-09-16T08:30:05.344Z,85.80
2018-09-16T08:31:05.495Z,85.13
2018-09-16T08:32:05.645Z,85.03
2018-09-16T08:33:05.798Z,85.03
2018-09-16T08:34:05.951Z,85.41
2018-09-16T08:35:06.103Z,84.94
2018-09-16T08:36:06.253Z,83.69
2018-09-16T08:37:06.406Z,83.89
2018-09-16T08:38:06.617Z,84.75
2018-09-16T08:39:06.710Z,84.02
2018-09-16T08:40:06.862Z,82.78
2018-09-16T08:41:07.024Z,82.97
2018-09-16T08:42:07.178Z,82.59
2018-09-16T08:43:07.332Z,82.73
2018-09-16T08:44:07.484Z,82.06
2018-09-16T08:45:07.632Z,81.67
2018-09-16T08:46:07.785Z,81.67
2018-09-16T08:47:07.937Z,81.48
2018-09-16T08:48:08.094Z,81.29
2018-09-16T08:49:08.243Z,82.19
2018-09-16T08:50:08.396Z,81.62
2018-09-16T08:51:08.549Z,80.85
2018-09-16T08:52:08.753Z,80.56
2018-09-16T08:53:08.853Z,79.51
2018-09-16T08:54:09.005Z,79.60
2018-09-16T08:55:09.162Z,79.32
2018-09-16T08:56:09.313Z,79.41
2018-09-16T08:57:09.468Z,79.60
2018-09-16T08:58:09.679Z,78.97
2018-09-16T08:59:09.773Z,79.26
2018-09-16T09:00:09.926Z,78.30
2018-09-16T09:01:10.078Z,78.88
2018-09-16T09:02:10.232Z,78.20
2018-09-16T09:03:10.388Z,77.82
2018-09-16T09:04:10.570Z,77.92
2018-09-16T09:05:10.695Z,77.86
2018-09-16T09:06:10.852Z,77.00
2018-09-16T09:07:11.004Z,77.00
2018-09-16T09:08:11.157Z,76.90
2018-09-16T09:09:11.308Z,77.00
2018-09-16T09:10:11.465Z,76.90
2018-09-16T09:11:11.616Z,77.19
2018-09-16T09:12:11.771Z,77.13
2018-09-16T09:13:11.927Z,77.23
2018-09-16T09:14:12.105Z,75.21
2018-09-16T09:15:12.233Z,75.31
2018-09-16T09:16:12.382Z,75.12
2018-09-16T09:17:12.532Z,74.44
2018-09-16T09:18:12.688Z,74.64
2018-09-16T09:19:12.838Z,74.44
2018-09-16T09:20:12.991Z,75.82
2018-09-16T09:21:13.149Z,74.48
2018-09-16T09:22:13.296Z,74.19
2018-09-16T09:23:13.498Z,73.72
2018-09-16T09:24:13.603Z,73.18
2018-09-16T09:25:13.757Z,73.46
2018-09-16T09:26:13.915Z,72.99
2018-09-16T09:27:14.072Z,72.64
2018-09-16T09:28:14.225Z,73.11
2018-09-16T09:29:14.380Z,71.45
2018-09-16T09:30:14.535Z,71.73
2018-09-16T09:31:14.691Z,71.35
2018-09-16T09:32:14.846Z,71.25
2018-09-16T09:33:15.000Z,71.06
2018-09-16T09:34:15.153Z,71.25
2018-09-16T09:35:15.297Z,70.78
2018-09-16T09:36:15.509Z,70.72
2018-09-16T09:37:15.664Z,70.62
2018-09-16T09:38:15.814Z,69.95
2018-09-16T09:39:15.971Z,69.95
2018-09-16T09:40:16.126Z,70.07
2018-09-16T09:41:16.281Z,69.12
2018-09-16T09:42:16.435Z,68.63
2018-09-16T09:43:16.587Z,68.67
2018-09-16T09:44:16.743Z,68.19
2018-09-16T09:45:16.900Z,68.67
2018-09-16T09:46:17.059Z,67.32
2018-09-16T09:47:17.250Z,66.84
2018-09-16T09:48:17.365Z,66.46
2018-09-16T09:49:17.518Z,67.13
2018-09-16T09:50:17.673Z,67.03
2018-09-16T09:51:17.829Z,66.27
2018-09-16T09:52:17.985Z,65.59
2018-09-16T09:53:18.150Z,65.81
2018-09-16T09:54:18.295Z,65.33
2018-09-16T09:55:18.452Z,64.76
2018-09-16T09:56:18.610Z,63.99
2018-09-16T09:57:18.762Z,63.89
2018-09-16T09:58:18.919Z,64.37
2018-09-16T09:59:19.107Z,64.12
2018-09-16T10:00:19.229Z,62.57
2018-09-16T10:01:19.382Z,62.48
2018-09-16T10:02:19.537Z,62.57
2018-09-16T10:03:19.692Z,62.87
2018-09-16T10:04:19.847Z,61.25
2018-09-16T10:05:20.001Z,62.41
2018-09-16T10:06:20.158Z,61.93
2018-09-16T10:07:20.312Z,60.68
2018-09-16T10:08:20.467Z,60.68
2018-09-16T10:09:20.622Z,61.25
2018-09-16T10:10:20.777Z,60.77
2018-09-16T10:11:20.934Z,60.10
2018-09-16T10:12:21.095Z,59.04
2018-09-16T10:13:21.248Z,58.95
2018-09-16T10:14:21.423Z,57.40
2018-09-16T10:15:21.561Z,57.69
2018-09-16T10:16:21.713Z,57.53
2018-09-16T10:17:21.867Z,57.05
2018-09-16T10:18:22.023Z,57.05
2018-09-16T10:19:22.181Z,56.85
2018-09-16T10:20:22.337Z,57.14
2018-09-16T10:21:22.491Z,55.96
2018-09-16T10:22:22.651Z,56.54
2018-09-16T10:23:22.812Z,57.62
2018-09-16T10:24:23.022Z,58.20
2018-09-16T10:25:23.128Z,56.66
2018-09-16T10:26:23.286Z,56.85
2018-09-16T10:27:23.438Z,55.60
2018-09-16T10:28:23.592Z,55.02
2018-09-16T10:29:23.747Z,55.51
2018-09-16T10:30:23.904Z,55.02
2018-09-16T10:31:24.062Z,55.31
2018-09-16T10:32:24.218Z,55.51
2018-09-16T10:33:24.373Z,55.31
2018-09-16T10:34:24.530Z,55.15
2018-09-16T10:35:24.685Z,55.44
2018-09-16T10:36:24.844Z,54.86
2018-09-16T10:37:25.011Z,54.18
2018-09-16T10:38:25.181Z,54.18
2018-09-16T10:39:25.327Z,53.89
2018-09-16T10:40:25.491Z,54.18
2018-09-16T10:41:25.646Z,53.99
2018-09-16T10:42:25.804Z,54.76
2018-09-16T10:43:25.962Z,53.61
2018-09-16T10:44:26.115Z,53.13
2018-09-16T10:45:26.270Z,53.03
2018-09-16T10:46:26.426Z,53.22
2018-09-16T10:47:26.582Z,53.61
2018-09-16T10:48:26.814Z,54.66
2018-09-16T10:49:26.901Z,54.66
2018-09-16T10:50:27.053Z,53.92
2018-09-16T10:51:27.208Z,53.53
2018-09-16T10:52:27.367Z,53.92
2018-09-16T10:53:27.531Z,51.41
2018-09-16T10:54:27.686Z,51.89
2018-09-16T10:55:27.842Z,51.80
2018-09-16T10:56:27.998Z,51.41
2018-09-16T10:57:28.157Z,51.10
2018-09-16T10:58:28.312Z,51.20
2018-09-16T10:59:28.467Z,51.22
2018-09-16T11:00:28.620Z,51.51
2018-09-16T11:01:28.781Z,50.54
2018-09-16T11:02:28.938Z,50.18
2018-09-16T11:03:29.094Z,50.64
2018-09-16T11:04:29.258Z,50.16
2018-09-16T11:05:29.409Z,50.45
2018-09-16T11:06:29.564Z,50.16
2018-09-16T11:07:29.721Z,50.35
2018-09-16T11:08:29.878Z,49.87
2018-09-16T11:09:30.034Z,50.26
2018-09-16T11:10:30.198Z,49.80
2018-09-16T11:11:30.354Z,49.99
2018-09-16T11:12:30.516Z,48.93
2018-09-16T11:13:30.673Z,49.34
2018-09-16T11:14:30.829Z,48.37
2018-09-16T11:15:30.988Z,47.99
2018-09-16T11:16:31.144Z,48.37
2018-09-16T11:17:31.298Z,49.24
2018-09-16T11:18:31.457Z,47.87
2018-09-16T11:19:31.615Z,48.37
2018-09-16T11:20:31.772Z,48.08
2018-09-16T11:21:31.929Z,46.73
2018-09-16T11:22:32.090Z,47.14
2018-09-16T11:23:32.248Z,46.37
2018-09-16T11:24:32.403Z,47.05
2018-09-16T11:25:32.572Z,45.79
2018-09-16T11:26:32.730Z,45.21
2018-09-16T11:27:32.886Z,45.48
2018-09-16T11:28:33.042Z,45.59
2018-09-16T11:29:33.202Z,45.98
2018-09-16T11:30:33.361Z,45.67
2018-09-16T11:31:33.521Z,46.15
2018-09-16T11:32:33.674Z,46.54
2018-09-16T11:33:33.834Z,46.15
2018-09-16T11:34:33.988Z,46.64
2018-09-16T11:35:34.183Z,46.37
2018-09-16T11:36:34.305Z,45.59
2018-09-16T11:37:34.471Z,45.31
2018-09-16T11:38:34.619Z,45.98
2018-09-16T11:39:34.779Z,45.52
2018-09-16T11:40:34.939Z,45.04
2018-09-16T11:41:35.094Z,45.33
2018-09-16T11:42:35.255Z,45.23
2018-09-16T11:43:35.416Z,45.14
2018-09-16T11:44:35.572Z,45.04
2018-09-16T11:45:35.730Z,45.04
2018-09-16T11:46:35.888Z,44.65
2018-09-16T11:47:36.046Z,45.25
2018-09-16T11:48:36.203Z,44.09
2018-09-16T11:49:36.368Z,43.61
2018-09-16T11:50:36.520Z,44.09
2018-09-16T11:51:36.713Z,44.19
2018-09-16T11:52:36.845Z,43.41
2018-09-16T11:53:37.006Z,43.71
2018-09-16T11:54:37.165Z,42.93
2018-09-16T11:55:37.323Z,44.09
2018-09-16T11:56:37.483Z,44.48
2018-09-16T11:57:37.640Z,43.32
2018-09-16T11:58:37.801Z,42.76
2018-09-16T11:59:37.958Z,42.45
2018-09-16T12:00:38.118Z,42.74
2018-09-16T12:01:38.278Z,43.03
2018-09-16T12:02:38.439Z,42.55
2018-09-16T12:03:38.598Z,43.41
2018-09-16T12:04:38.756Z,42.37
2018-09-16T12:05:38.916Z,42.45
2018-09-16T12:06:39.073Z,41.87
2018-09-16T12:07:39.233Z,41.89
2018-09-16T12:08:39.390Z,41.87
2018-09-16T12:09:39.556Z,42.65
2018-09-16T12:10:39.715Z,43.61
2018-09-16T12:11:39.906Z,44.09
2018-09-16T12:12:40.055Z,41.97
2018-09-16T12:13:40.214Z,41.97
2018-09-16T12:14:40.378Z,41.58
2018-09-16T12:15:40.531Z,41.67
2018-09-16T12:16:40.695Z,41.89
2018-09-16T12:17:40.851Z,41.21
2018-09-16T12:18:41.011Z,41.11
2018-09-16T12:19:41.170Z,41.14
2018-09-16T12:20:41.332Z,41.04
2018-09-16T12:21:41.504Z,40.26
2018-09-16T12:22:41.664Z,40.34
2018-09-16T12:23:41.829Z,41.50
2018-09-16T12:24:41.988Z,42.37
2018-09-16T12:25:42.147Z,42.49
2018-09-16T12:26:42.323Z,41.09
2018-09-16T12:27:42.473Z,41.00
2018-09-16T12:28:42.632Z,41.46
2018-09-16T12:29:42.792Z,41.46
2018-09-16T12:30:43.001Z,41.29
2018-09-16T12:31:43.116Z,41.77
2018-09-16T12:32:43.274Z,41.41
2018-09-16T12:33:43.428Z,40.81
2018-09-16T12:34:43.597Z,40.83
2018-09-16T12:35:43.751Z,40.34
2018-09-16T12:36:43.914Z,40.17
2018-09-16T12:37:44.079Z,39.97
2018-09-16T12:38:44.234Z,39.78
2018-09-16T12:39:44.409Z,39.80
2018-09-16T12:40:44.569Z,38.43
2018-09-16T12:41:44.733Z,39.41
2018-09-16T12:42:44.899Z,39.11
2018-09-16T12:43:45.107Z,39.78
2018-09-16T12:44:45.284Z,39.69
2018-09-16T12:45:45.446Z,39.11
2018-09-16T12:46:45.601Z,39.41
2018-09-16T12:47:45.764Z,38.91
2018-09-16T12:48:45.917Z,39.59
2018-09-16T12:49:46.081Z,39.69
2018-09-16T12:50:46.266Z,39.61
2018-09-16T12:51:46.417Z,39.61
2018-09-16T12:52:46.626Z,39.32
2018-09-16T12:53:46.785Z,39.72
2018-09-16T12:54:46.989Z,39.22